Nearby METAR Reports

 

KSJC - San Jose, California, USA
Distance from station: NE 14km
Updated: 20/07/2018 18:53
Few Clouds
Few Clouds
 Wind from W
Wind: W 7 km/h
Temperature: 21°C
Dew Point: 14°C
Humidity: 64%
Barometer: 1012.9 hPa
Clouds: Few Clouds
Visibility: 16 km
Cloud details: Few Clouds 2134 m
Few Clouds 3353 m
2018/07/20 15:53 KSJC 201553Z 27004KT 10SM FEW070 FEW110 21/14 A2991 RMK AO2 SLP127 T02060144
KNUQ - Moffett Nas/Mtn, California, USA
Distance from station: N 14km
Updated: 20/07/2018 18:56
Clear
Clear
 Wind from NNE
Wind: NNE 6 km/h
Temperature: 17°C
Dew Point: 15°C
Humidity: 88%
Barometer: 1013.2 hPa
Clouds: Clear
Visibility: 14 km
2018/07/20 15:56 KNUQ 201556Z 02003KT 9SM CLR 17/15 A2992 RMK AO2 SLP135 T01720150
 
KPAO - Palo Alto, California, USA
Distance from station: NNW 23km
Updated: 20/07/2018 18:47
Mist, Partly cloudy
Mist, Partly cloudy
 Wind from varies
Wind: varies 7 km/h
Temperature: 18°C
Dew Point: 16°C
Humidity: 88%
Barometer: 1013.5 hPa
Summary: Mist
Clouds: Partly cloudy
Visibility: 10 km
Cloud details: Partly cloudy 335 m
2018/07/20 15:47 KPAO 201547Z VRB04KT 6SM BR SCT011 18/16 A2993
KRHV - San Jose/Reid, California, USA
Distance from station: ENE 19km
Updated: 20/07/2018 16:54
NOT Current
Partly cloudy
Partly cloudy
 Wind from WSW
Wind: WSW 7 km/h
Temperature: 21°C
Dew Point: 15°C
Humidity: 69%
Barometer: 1012.2 hPa
Clouds: Partly cloudy
Visibility: 16 km
Cloud details: Partly cloudy 1829 m
2018/07/20 13:54 KRHV 201354Z 25004KT 10SM SCT060 21/15 A2989
 
KOAK - Oakland, California, USA
Distance from station: NNW 50km
Updated: 20/07/2018 18:53
Mist, Partly cloudy
Mist, Partly cloudy
 Wind from NNW
Wind: NNW 7 km/h
Temperature: 17°C
Dew Point: 14°C
Humidity: 83%
Barometer: 1013.5 hPa
Summary: Mist
Clouds: Partly cloudy
Visibility: 10 km
Cloud details: Partly cloudy 213 m
Partly cloudy 6096 m
2018/07/20 15:53 KOAK 201553Z 33004KT 6SM BR SCT007 SCT200 17/14 A2993 RMK AO2 SLP136 T01670144
KSQL - San Carlos Airpo, California, USA
Distance from station: NW 34km
Updated: 20/07/2018 18:47
Partly cloudy
Partly cloudy
 Wind from calm
Wind: Calm
Temperature: 18°C
Dew Point: 15°C
Humidity: 83%
Barometer: 1013.5 hPa
Clouds: Partly cloudy
Visibility: 16 km
Cloud details: Partly cloudy 274 m
Partly cloudy 3962 m
Partly cloudy 6096 m
2018/07/20 15:47 KSQL 201547Z 00000KT 10SM SCT009 SCT130 SCT200 18/15 A2993
 
KSFO - San Francisco, California, USA
Distance from station: NW 49km
Updated: 20/07/2018 18:56
Mostly cloudy
Mostly cloudy
 Wind from NNE
Wind: NNE 11 km/h
Temperature: 18°C
Dew Point: 14°C
Humidity: 78%
Barometer: 1013.2 hPa
Clouds: Mostly cloudy
Visibility: 16 km
Cloud details: Mostly cloudy 244 m
2018/07/20 15:56 KSFO 201556Z 03006KT 10SM BKN008 18/14 A2992 RMK AO2 SLP132 T01780144
KE16 - San Martin, California, USA
Distance from station: ESE 43km
Updated: 18/07/2018 23:15
NOT Current
Clear
Clear
 Wind from S
Wind: S 11 km/h
Temperature: 28°C
Dew Point: 12°C
Humidity: 37%
Barometer: 1015.2 hPa
Clouds: Clear
Visibility: 14 km
2018/07/18 20:15 KE16 182015Z AUTO 17006KT 9SM CLR 28/12 A2998 RMK AO2
 
KWVI - Watsonville, California, USA
Distance from station: SSE 44km
Updated: 20/07/2018 18:53
Overcast
Overcast
 Wind from WSW
Wind: WSW 7 km/h
Barometer: 1014.6 hPa
Clouds: Overcast
Visibility: 16 km
Cloud details: Overcast 91 m
2018/07/20 15:53 KWVI 201553Z AUTO 24004KT 10SM OVC003 A2996 RMK AO2 SLPNO $
KHAF - Half Moon Bay, California, USA
Distance from station: WNW 50km
Updated: 20/07/2018 19:00
Mist, Overcast
Mist, Overcast
 Wind from SSE
Wind: SSE 19 km/h
Temperature: 14°C
Dew Point: 14°C
Humidity: 100%
Barometer: 1014.2 hPa
Summary: Mist
Clouds: Overcast
Visibility: 5 km
Cloud details: Overcast 91 m
2018/07/20 16:00 KHAF 201600Z AUTO 16010KT 3/4SM BR OVC003 14/14 A2995 RMK AO2
 
KHWD - Hayward, California, USA
Distance from station: N 44km
Updated: 20/07/2018 18:54
Partly cloudy
Partly cloudy
 Wind from varies
Wind: varies 6 km/h
Temperature: 18°C
Dew Point: 14°C
Humidity: 78%
Barometer: 1013.2 hPa
Clouds: Partly cloudy
Visibility: 14 km
Cloud details: Partly cloudy 213 m
2018/07/20 15:54 KHWD 201554Z VRB03KT 9SM SCT007 18/14 A2992 RMK AO2 SLP141 T01780139
KLVK - Livermore, California, USA
Distance from station: NNE 51km
Updated: 20/07/2018 18:53
Clear
Clear
 Wind from calm
Wind: Calm
Temperature: 22°C
Dew Point: 13°C
Humidity: 57%
Barometer: 1012.2 hPa
Clouds: Clear
Visibility: 16 km
2018/07/20 15:53 KLVK 201553Z 00000KT 10SM CLR 22/13 A2989 RMK AO2 SLP119 T02170128